Time;durP1;ratioP1;P1;durP2;ratioP2;P2;SDS_P1;SDS_P2;PMS_P1;PMS_P2;Temp;Humidity;BMP_temperature;BMP_pressure;BME280_temperature;BME280_humidity;BME280_pressure;Samples;Min_cycle;Max_cycle;Signal;HPM_P1;HPM_P2
2022/09/10 00:00:23;;;;;;;25.58;13.88;;;;;;;-143.48;84.79;77833.69;5073236;28;20089;-36
2022/09/10 00:02:48;;;;;;;25.13;13.25;;;;;;;-143.48;85.56;77845.59;5073129;28;20044;-36
2022/09/10 00:05:14;;;;;;;25.08;13.27;;;;;;;-143.48;85.13;77855.50;5073587;28;20024;-38
2022/09/10 00:07:39;;;;;;;22.50;12.95;;;;;;;-143.48;86.20;77865.44;5073306;28;20074;-36
2022/09/10 00:10:05;;;;;;;25.50;14.23;;;;;;;-143.48;86.51;77861.47;5073502;28;20021;-36
2022/09/10 00:12:30;;;;;;;22.15;12.75;;;;;;;-143.48;86.69;77877.31;5073387;28;20024;-36
2022/09/10 00:14:55;;;;;;;23.00;13.50;;;;;;;-143.48;87.65;77871.38;5073349;28;20024;-36
2022/09/10 00:17:21;;;;;;;23.13;12.98;;;;;;;-143.48;86.74;77865.44;5073353;28;20531;-36
2022/09/10 00:19:46;;;;;;;25.58;12.75;;;;;;;-143.48;87.33;77867.41;5073302;28;20023;-36
2022/09/10 00:22:12;;;;;;;21.77;11.77;;;;;;;-143.48;87.13;77863.44;5073800;28;20031;-36
2022/09/10 00:24:38;;;;;;;20.08;12.25;;;;;;;-143.48;87.52;77867.41;5073220;28;20013;-36
2022/09/10 00:27:03;;;;;;;23.50;12.23;;;;;;;-143.48;87.44;77861.47;5073604;28;20032;-36
2022/09/10 00:29:29;;;;;;;23.52;13.30;;;;;;;-143.48;87.65;77863.44;5073453;28;20103;-36
2022/09/10 00:31:55;;;;;;;23.48;11.18;;;;;;;-143.48;87.52;77869.41;5073375;28;20421;-34
2022/09/10 00:34:20;;;;;;;19.65;11.70;;;;;;;-143.48;87.96;77871.38;5073190;28;20028;-36
2022/09/10 00:36:45;;;;;;;20.25;11.65;;;;;;;-143.48;87.68;77869.41;5073649;28;20024;-36
2022/09/10 00:39:16;;;;;;;19.70;10.65;;;;;;;-143.48;88.01;77877.31;5073888;28;20043;-37
2022/09/10 00:41:43;;;;;;;18.90;10.30;;;;;;;-143.48;87.61;77877.31;5073102;28;20433;-37
2022/09/10 00:44:39;;;;;;;17.52;10.00;;;;;;;-143.48;87.10;77869.41;5055070;28;20029;-36
2022/09/10 00:47:11;;;;;;;23.90;9.82;;;;;;;-143.48;86.74;77873.38;5073325;28;20379;-36
2022/09/10 00:49:42;;;;;;;19.33;10.00;;;;;;;-143.48;87.02;77875.34;5073317;28;20047;-36
2022/09/10 00:52:08;;;;;;;18.35;9.88;;;;;;;-143.48;87.29;77875.34;5073383;28;20029;-37
2022/09/10 00:54:36;;;;;;;16.10;9.32;;;;;;;-143.48;87.58;77867.41;5072933;28;20479;-36
2022/09/10 00:57:10;;;;;;;16.95;8.80;;;;;;;-143.48;86.97;77869.41;5073276;28;20055;-36
2022/09/10 00:59:37;;;;;;;17.00;9.38;;;;;;;-143.48;86.31;77869.41;5072914;28;20044;-35
2022/09/10 01:02:02;;;;;;;21.13;9.20;;;;;;;-143.48;86.63;77869.41;5073113;28;20020;-35
2022/09/10 01:04:28;;;;;;;15.38;8.40;;;;;;;-143.48;87.00;77867.41;5073154;28;20375;-35
2022/09/10 01:06:55;;;;;;;20.00;9.23;;;;;;;-143.48;86.90;77875.34;5072902;28;20577;-35
2022/09/10 01:09:22;;;;;;;20.27;10.05;;;;;;;-143.48;86.66;77881.28;5073653;28;20476;-35
2022/09/10 01:12:15;;;;;;;16.17;9.38;;;;;;;-143.48;87.00;77871.38;5076468;28;20041;-35
2022/09/10 01:14:54;;;;;;;18.75;9.23;;;;;;;-143.48;87.24;77867.41;5076780;28;20517;-35
2022/09/10 01:17:32;;;;;;;20.00;9.98;;;;;;;-143.48;87.17;77885.25;5077102;28;20021;-35
2022/09/10 01:20:42;;;;;;;17.75;10.15;;;;;;;-143.48;87.18;77887.25;5076727;28;20028;-35
2022/09/10 01:23:48;;;;;;;21.35;9.98;;;;;;;-143.48;87.13;77881.28;5076373;28;20100;-35
2022/09/10 01:26:38;;;;;;;17.25;9.75;;;;;;;-143.48;87.21;77879.31;5058423;28;20086;-35
2022/09/10 01:29:31;;;;;;;18.02;10.07;;;;;;;-143.48;87.40;77871.38;5076756;28;20024;-35
2022/09/10 01:32:20;;;;;;;21.60;10.38;;;;;;;-143.48;87.69;77873.38;5076477;28;20115;-35
2022/09/10 01:35:00;;;;;;;22.85;10.15;;;;;;;-143.48;87.16;77869.41;5076403;28;20020;-35
2022/09/10 01:37:28;;;;;;;20.67;10.43;;;;;;;-143.48;87.33;77885.25;5076319;28;20025;-35
2022/09/10 01:39:55;;;;;;;20.20;10.60;;;;;;;-143.48;87.82;77909.06;5076435;28;20467;-35
2022/09/10 01:42:24;;;;;;;17.45;10.70;;;;;;;-143.48;88.20;77905.09;5076054;28;20024;-35
2022/09/10 01:44:52;;;;;;;22.48;10.85;;;;;;;-143.48;87.91;77895.19;5076321;28;20032;-37
2022/09/10 01:47:30;;;;;;;16.85;10.57;;;;;;;-143.48;88.10;77920.94;5076120;28;20021;-35
2022/09/10 01:50:05;;;;;;;20.52;10.95;;;;;;;-143.48;88.34;77915.00;5075982;28;20486;-35
2022/09/10 01:52:47;;;;;;;25.77;11.35;;;;;;;-143.48;88.85;77928.88;5075995;28;20060;-35
2022/09/10 01:55:22;;;;;;;17.45;10.57;;;;;;;-143.48;88.42;77924.91;5076399;28;20035;-35
2022/09/10 01:58:12;;;;;;;17.17;10.13;;;;;;;-143.48;87.54;77928.88;5075648;28;20029;-35
2022/09/10 02:00:44;;;;;;;15.93;9.98;;;;;;;-143.48;87.68;77905.09;5075507;28;20028;-35
2022/09/10 02:03:16;;;;;;;14.68;9.50;;;;;;;-143.48;87.13;77917.00;5076247;28;20456;-35
2022/09/10 02:05:43;;;;;;;17.63;9.60;;;;;;;-143.48;86.98;77917.00;5057655;28;20029;-35
2022/09/10 02:08:15;;;;;;;20.15;9.95;;;;;;;-143.48;87.23;77905.09;5075576;28;20110;-35
2022/09/10 02:11:09;;;;;;;20.10;10.20;;;;;;;-143.48;86.91;77909.06;5075507;28;20082;-34
2022/09/10 02:13:35;;;;;;;18.73;10.23;;;;;;;-143.48;87.25;77903.09;5071878;28;20051;-36
2022/09/10 02:16:05;;;;;;;20.05;10.55;;;;;;;-143.48;87.13;77909.06;5075437;28;20022;-41
2022/09/10 02:18:31;;;;;;;17.63;10.43;;;;;;;-143.48;87.66;77915.00;5075675;28;20043;-41
2022/09/10 02:21:01;;;;;;;22.50;11.23;;;;;;;-143.48;87.84;77917.00;5074822;28;20050;-39
2022/09/10 02:23:47;;;;;;;18.02;11.10;;;;;;;-143.48;87.90;77930.88;5075642;28;20459;-44
2022/09/10 02:26:13;;;;;;;20.00;10.98;;;;;;;-143.48;88.14;77924.91;5075568;28;20024;-42
2022/09/10 02:28:39;;;;;;;17.15;11.30;;;;;;;-143.48;88.17;77913.03;5075194;28;20024;-41
2022/09/10 02:31:05;;;;;;;21.88;11.43;;;;;;;-143.48;87.60;77920.94;5075034;28;20103;-42
2022/09/10 02:33:30;;;;;;;20.52;12.05;;;;;;;-143.48;87.65;77917.00;5075696;28;20151;-41
2022/09/10 02:35:56;;;;;;;20.20;11.38;;;;;;;-143.48;87.73;77913.03;5075445;28;20070;-41
2022/09/10 02:38:21;;;;;;;20.73;11.15;;;;;;;-143.48;87.73;77909.06;5075058;28;20048;-41
2022/09/10 02:40:50;;;;;;;20.77;12.00;;;;;;;-143.48;87.47;77913.03;5075475;28;20024;-42
2022/09/10 02:43:16;;;;;;;18.00;11.55;;;;;;;-143.48;87.78;77909.06;5075422;28;20057;-41
2022/09/10 02:45:42;;;;;;;20.65;11.63;;;;;;;-143.48;87.66;77913.03;5056970;28;20024;-42
2022/09/10 02:48:08;;;;;;;21.75;11.68;;;;;;;-143.48;87.80;77901.13;5074816;28;20063;-41
2022/09/10 02:50:33;;;;;;;22.08;12.57;;;;;;;-143.48;87.83;77909.06;5074970;28;20059;-41
2022/09/10 02:52:59;;;;;;;22.35;11.90;;;;;;;-143.48;87.44;77909.06;5075231;28;20032;-42
2022/09/10 02:55:25;;;;;;;21.20;12.93;;;;;;;-143.48;87.90;77893.19;5074960;28;20352;-41
2022/09/10 02:57:51;;;;;;;22.25;13.27;;;;;;;-143.48;87.35;77897.16;5075419;28;20031;-42
2022/09/10 03:00:18;;;;;;;18.58;13.55;;;;;;;-143.48;87.47;77901.13;5074816;28;20024;-42
2022/09/10 03:02:43;;;;;;;22.73;13.57;;;;;;;-143.48;87.96;77909.06;5074793;28;20044;-41
2022/09/10 03:05:08;;;;;;;21.13;13.80;;;;;;;-143.48;88.68;77895.19;5074718;28;20045;-41
2022/09/10 03:07:33;;;;;;;18.38;13.50;;;;;;;-143.48;88.09;77901.13;5074622;28;20028;-41
2022/09/10 03:09:59;;;;;;;25.85;14.38;;;;;;;-143.48;88.37;77899.13;5074537;28;20115;-42
2022/09/10 03:12:24;;;;;;;27.15;15.57;;;;;;;-143.48;88.45;77897.16;5056317;28;20438;-41
2022/09/10 03:14:49;;;;;;;24.45;14.68;;;;;;;-143.48;88.35;77893.19;5074197;28;20119;-41
2022/09/10 03:17:15;;;;;;;24.45;14.82;;;;;;;-143.48;88.57;77893.19;5074438;28;20025;-40
2022/09/10 03:19:41;;;;;;;22.95;14.30;;;;;;;-143.48;88.22;77881.28;5074481;28;20017;-40
2022/09/10 03:22:06;;;;;;;23.02;15.07;;;;;;;-143.48;87.81;77873.38;5074396;28;20024;-41
2022/09/10 03:24:31;;;;;;;21.60;15.60;;;;;;;-143.48;87.73;77871.38;5074127;28;20352;-40
2022/09/10 03:26:57;;;;;;;21.55;14.77;;;;;;;-143.48;87.71;77877.31;5074005;28;20036;-40
2022/09/10 03:29:23;;;;;;;24.40;16.17;;;;;;;-143.48;88.30;77885.25;5073970;28;20463;-41
2022/09/10 03:31:50;;;;;;;24.77;16.20;;;;;;;-143.48;88.25;77877.31;5073572;28;20352;-41
2022/09/10 03:34:16;;;;;;;23.25;15.45;;;;;;;-143.48;88.64;77883.28;5073734;28;20025;-41
2022/09/10 03:36:41;;;;;;;24.08;16.45;;;;;;;-143.48;88.74;77879.31;5055899;28;20024;-41
2022/09/10 03:39:07;;;;;;;22.90;16.25;;;;;;;-143.48;89.16;77887.25;5074045;28;20016;-41
2022/09/10 03:41:33;;;;;;;20.30;15.75;;;;;;;-143.48;88.84;77881.28;5074078;28;20054;-41
2022/09/10 03:43:59;;;;;;;21.75;16.25;;;;;;;-143.48;88.74;77869.41;5073674;28;20021;-41
2022/09/10 03:46:24;;;;;;;26.70;15.98;;;;;;;-143.48;88.46;77861.47;5073948;28;20118;-41
2022/09/10 03:48:50;;;;;;;24.30;15.93;;;;;;;-143.48;88.14;77871.38;5073688;28;20360;-41
2022/09/10 03:51:15;;;;;;;22.25;16.08;;;;;;;-143.48;88.17;77873.38;5073867;28;20025;-41
2022/09/10 03:53:42;;;;;;;21.98;16.48;;;;;;;-143.48;88.01;77873.38;5073572;28;20031;-42
2022/09/10 03:56:08;;;;;;;24.02;16.30;;;;;;;-143.48;88.45;77861.47;5073816;28;20032;-40
2022/09/10 03:58:34;;;;;;;23.67;16.70;;;;;;;-143.48;88.13;77873.38;5073770;28;20032;-41
2022/09/10 04:01:00;;;;;;;28.90;17.38;;;;;;;-143.48;88.80;77875.34;5073443;28;20016;-41
2022/09/10 04:03:26;;;;;;;28.52;17.65;;;;;;;-143.48;89.05;77871.38;5073470;28;20540;-40
2022/09/10 04:05:51;;;;;;;20.98;16.27;;;;;;;-143.48;89.05;77861.47;5073766;28;20095;-41
2022/09/10 04:08:16;;;;;;;26.77;16.35;;;;;;;-143.48;89.37;77879.31;5073437;28;20456;-40
2022/09/10 04:10:43;;;;;;;26.35;17.35;;;;;;;-143.48;89.78;77869.41;5073379;28;20135;-41
2022/09/10 04:13:08;;;;;;;25.05;17.13;;;;;;;-143.48;89.69;77869.41;5073409;28;20025;-40
2022/09/10 04:15:34;;;;;;;25.20;17.17;;;;;;;-143.48;89.72;77857.50;5055904;28;20027;-41
2022/09/10 04:17:59;;;;;;;24.75;16.90;;;;;;;-143.48;89.67;77867.41;5073379;28;20033;-40
2022/09/10 04:20:25;;;;;;;25.08;17.45;;;;;;;-143.48;89.51;77865.44;5074366;28;20029;-41
2022/09/10 04:22:51;;;;;;;23.75;16.75;;;;;;;-143.48;89.93;77877.31;5073289;28;20378;-40
2022/09/10 04:25:19;;;;;;;24.33;17.30;;;;;;;-143.48;90.15;77869.41;5073524;28;20051;-40
2022/09/10 04:27:46;;;;;;;27.05;17.35;;;;;;;-143.48;90.06;77865.44;5073210;28;20040;-41
2022/09/10 04:30:12;;;;;;;26.50;16.70;;;;;;;-143.48;89.95;77855.50;5073333;28;20031;-41
2022/09/10 04:32:37;;;;;;;23.15;15.68;;;;;;;-143.48;89.21;77853.53;5055073;28;20013;-42
2022/09/10 04:35:04;;;;;;;21.42;15.13;;;;;;;-143.48;89.10;77841.63;5073172;28;20033;-41
2022/09/10 04:37:30;;;;;;;23.60;15.68;;;;;;;-143.48;89.22;77841.63;5072970;28;20077;-41
2022/09/10 04:39:56;;;;;;;24.60;15.32;;;;;;;-143.48;88.88;77833.69;5073390;28;20459;-41
2022/09/10 04:42:21;;;;;;;24.60;15.40;;;;;;;-143.48;88.74;77841.63;5073052;28;20021;-40
2022/09/10 04:44:47;;;;;;;23.60;15.68;;;;;;;-143.48;88.86;77847.59;5076116;28;20435;-39
2022/09/10 04:47:13;;;;;;;21.48;16.00;;;;;;;-143.48;88.76;77839.66;5077076;28;20123;-40
2022/09/10 04:49:38;;;;;;;21.80;15.98;;;;;;;-143.48;88.69;77851.56;5077061;28;20111;-40
2022/09/10 04:52:04;;;;;;;26.17;16.20;;;;;;;-143.48;88.78;77845.59;5076788;28;20108;-39
2022/09/10 04:54:29;;;;;;;23.60;16.33;;;;;;;-143.48;88.88;77835.69;5077203;28;20020;-41
2022/09/10 04:56:54;;;;;;;24.38;16.33;;;;;;;-143.48;88.51;77851.56;5076973;28;20021;-40
2022/09/10 04:59:20;;;;;;;24.63;16.05;;;;;;;-143.48;89.03;77847.59;5076816;28;20106;-40
2022/09/10 05:01:49;;;;;;;21.65;16.00;;;;;;;-143.48;88.59;77845.59;5077072;28;20096;-40
2022/09/10 05:04:15;;;;;;;20.67;15.52;;;;;;;-143.48;88.64;77853.53;5077013;28;20059;-41
2022/09/10 05:06:41;;;;;;;25.35;15.85;;;;;;;-143.48;88.87;77849.56;5076766;28;20386;-40
2022/09/10 05:09:07;;;;;;;23.50;16.08;;;;;;;-143.48;88.73;77851.56;5076933;28;20020;-41
2022/09/10 05:11:32;;;;;;;22.05;15.55;;;;;;;-143.48;88.69;77847.59;5076322;28;20139;-41
2022/09/10 05:13:57;;;;;;;26.52;15.88;;;;;;;-143.48;88.77;77849.56;5076601;28;20060;-41
2022/09/10 05:16:23;;;;;;;22.48;16.13;;;;;;;-143.48;89.27;77855.50;5076508;28;20028;-41
2022/09/10 05:18:48;;;;;;;21.98;15.48;;;;;;;-143.48;89.36;77853.53;5076505;28;20028;-39
2022/09/10 05:21:13;;;;;;;23.00;15.52;;;;;;;-143.48;89.03;77845.59;5076706;28;20047;-42
2022/09/10 05:23:40;;;;;;;21.33;15.40;;;;;;;-143.48;89.25;77853.53;5076662;28;20029;-41
2022/09/10 05:26:06;;;;;;;24.38;14.93;;;;;;;-143.48;88.69;77849.56;5076541;28;20032;-41
2022/09/10 05:28:31;;;;;;;21.38;14.98;;;;;;;-143.48;88.54;77845.59;5058411;28;20409;-42
2022/09/10 05:30:56;;;;;;;20.45;14.63;;;;;;;-143.48;88.27;77851.56;5076677;28;20020;-41
2022/09/10 05:33:22;;;;;;;20.63;14.65;;;;;;;-143.48;88.82;77851.56;5076761;28;20024;-41
2022/09/10 05:35:50;;;;;;;22.10;14.07;;;;;;;-143.48;89.03;77841.63;5076341;28;20511;-40
2022/09/10 05:38:15;;;;;;;20.40;13.88;;;;;;;-143.48;88.74;77835.69;5076362;28;20042;-40
2022/09/10 05:40:41;;;;;;;19.35;13.27;;;;;;;-143.48;88.25;77849.56;5076126;28;20107;-41
2022/09/10 05:43:07;;;;;;;19.55;13.05;;;;;;;-143.48;88.51;77851.56;5076137;28;20487;-40
2022/09/10 05:45:32;;;;;;;18.70;12.48;;;;;;;-143.48;88.36;77847.59;5076515;28;20111;-42
2022/09/10 05:47:58;;;;;;;23.75;13.02;;;;;;;-143.48;88.31;77839.66;5075903;28;20078;-41
2022/09/10 05:50:24;;;;;;;17.65;11.95;;;;;;;-143.48;88.20;77833.69;5058456;28;20036;-40
2022/09/10 05:52:49;;;;;;;19.45;12.35;;;;;;;-143.48;88.19;77821.81;5075862;28;20405;-39
2022/09/10 05:55:14;;;;;;;15.40;12.00;;;;;;;-143.48;87.74;77823.78;5075319;28;20024;-40
2022/09/10 05:57:40;;;;;;;16.95;11.73;;;;;;;-143.48;87.38;77825.78;5075811;28;20064;-41
2022/09/10 06:00:09;;;;;;;16.88;12.02;;;;;;;-143.48;87.29;77827.75;5075947;28;20013;-41
2022/09/10 06:02:35;;;;;;;19.85;12.07;;;;;;;-143.48;87.00;77807.94;5076097;28;20020;-41
2022/09/10 06:05:01;;;;;;;18.20;12.45;;;;;;;-143.48;86.46;77801.97;5075765;28;20028;-40
2022/09/10 06:07:28;;;;;;;18.38;12.32;;;;;;;-143.48;86.53;77809.91;5075771;28;20025;-41
2022/09/10 06:09:54;;;;;;;17.73;11.75;;;;;;;-143.48;86.46;77809.91;5075394;28;20064;-41
2022/09/10 06:12:19;;;;;;;18.83;11.90;;;;;;;-143.48;86.63;77807.94;5075469;28;20025;-41
2022/09/10 06:14:44;;;;;;;19.05;11.32;;;;;;;-143.48;86.36;77794.03;5076030;28;20052;-40
2022/09/10 06:17:11;;;;;;;16.00;10.90;;;;;;;-143.48;86.17;77817.84;5075700;28;20024;-41
2022/09/10 06:19:36;;;;;;;19.75;12.07;;;;;;;-143.48;86.35;77813.88;5057887;28;20154;-40
2022/09/10 06:22:01;;;;;;;16.30;11.88;;;;;;;-143.48;86.16;77831.72;5075319;28;20094;-39
2022/09/10 06:24:26;;;;;;;17.83;12.15;;;;;;;-143.48;86.84;77825.78;5075595;28;20467;-40
2022/09/10 06:26:52;;;;;;;18.67;12.80;;;;;;;-143.48;86.69;77817.84;5075593;28;20051;-41
2022/09/10 06:29:18;;;;;;;21.67;12.80;;;;;;;-143.48;86.42;77833.69;5058030;28;20024;-41
2022/09/10 06:31:44;;;;;;;20.33;12.27;;;;;;;-143.48;88.05;77841.63;5075068;28;20111;-41
2022/09/10 06:34:10;;;;;;;18.60;13.07;;;;;;;-143.48;88.37;77833.69;5075107;28;20048;-41
2022/09/10 06:36:36;;;;;;;19.48;12.18;;;;;;;-143.48;88.10;77839.66;5075235;28;20020;-42
2022/09/10 06:39:02;;;;;;;20.25;13.10;;;;;;;-143.48;88.48;77849.56;5075336;28;20028;-42
2022/09/10 06:41:29;;;;;;;19.98;13.25;;;;;;;-143.48;88.54;77829.75;5056913;28;20475;-41
2022/09/10 06:43:54;;;;;;;19.70;12.30;;;;;;;-143.48;87.72;77841.63;5074798;28;20024;-41
2022/09/10 06:46:20;;;;;;;21.88;12.82;;;;;;;-143.48;88.01;77829.75;5075211;28;20101;-42
2022/09/10 06:48:45;;;;;;;16.55;12.50;;;;;;;-143.48;87.62;77837.66;5074653;28;20051;-41
2022/09/10 06:51:12;;;;;;;20.98;13.38;;;;;;;-143.48;87.74;77827.75;5074964;28;20020;-40
2022/09/10 06:53:39;;;;;;;18.95;13.20;;;;;;;-143.48;87.68;77831.72;5075125;28;20103;-40
2022/09/10 06:56:07;;;;;;;26.02;13.40;;;;;;;-143.48;87.38;77829.75;5074647;28;20032;-41
2022/09/10 06:58:34;;;;;;;22.60;12.60;;;;;;;-143.48;87.14;77817.84;5074824;28;20070;-41
2022/09/10 07:01:09;;;;;;;18.23;12.70;;;;;;;-143.48;86.64;77809.91;5074804;28;20016;-41
2022/09/10 07:03:35;;;;;;;25.08;13.07;;;;;;;-143.48;86.42;77813.88;5074735;28;20032;-41
2022/09/10 07:06:05;;;;;;;21.73;13.13;;;;;;;-143.48;86.35;77817.84;5074394;28;20386;-41
2022/09/10 07:08:31;;;;;;;21.02;13.15;;;;;;;-143.48;86.45;77827.75;5074734;28;20380;-41
2022/09/10 07:11:02;;;;;;;25.02;14.23;;;;;;;-143.48;87.10;77825.78;5074104;28;20056;-40
2022/09/10 07:13:28;;;;;;;22.55;14.25;;;;;;;-143.48;87.44;77829.75;5074524;28;20111;-40
2022/09/10 07:15:53;;;;;;;21.38;13.82;;;;;;;-143.48;87.81;77817.84;5074206;28;20082;-41
2022/09/10 07:18:18;;;;;;;20.10;13.23;;;;;;;-143.48;88.25;77819.81;5074847;28;20051;-40
2022/09/10 07:20:45;;;;;;;19.88;13.77;;;;;;;-143.48;87.99;77821.81;5073708;28;20036;-39
2022/09/10 07:23:15;;;;;;;20.55;13.82;;;;;;;-143.48;87.96;77815.84;5073515;28;20463;-41
2022/09/10 07:25:41;;;;;;;21.33;13.68;;;;;;;-143.48;87.36;77825.78;5074204;28;20447;-42
2022/09/10 07:28:12;;;;;;;20.95;13.57;;;;;;;-143.48;86.76;77835.69;5073735;28;20074;-40
2022/09/10 07:30:38;;;;;;;22.48;13.57;;;;;;;-143.48;86.15;77835.69;5073587;28;20066;-42
2022/09/10 07:33:04;;;;;;;24.33;14.07;;;;;;;-143.48;86.63;77841.63;5055026;28;20020;-42
2022/09/10 07:35:32;;;;;;;20.27;14.10;;;;;;;-143.48;87.15;77837.66;5073819;28;20040;-42
2022/09/10 07:37:58;;;;;;;21.98;14.63;;;;;;;-143.48;87.18;77823.78;5073731;28;20027;-41
2022/09/10 07:40:26;;;;;;;23.02;14.70;;;;;;;-143.48;87.00;77817.84;5073705;28;20029;-41
2022/09/10 07:42:54;;;;;;;20.90;13.80;;;;;;;-143.48;86.92;77819.81;5073974;28;20095;-41
2022/09/10 07:45:20;;;;;;;26.83;14.18;;;;;;;-143.48;86.46;77823.78;5074081;28;20017;-41
2022/09/10 07:47:47;;;;;;;20.70;15.13;;;;;;;-143.48;86.86;77805.94;5073703;28;20051;-41
2022/09/10 07:50:13;;;;;;;19.73;13.45;;;;;;;-143.48;86.01;77809.91;5073666;28;20475;-40
2022/09/10 07:52:39;;;;;;;20.58;14.02;;;;;;;-143.48;86.19;77801.97;5074145;28;20024;-41
2022/09/10 07:55:05;;;;;;;22.73;13.85;;;;;;;-143.48;86.31;77813.88;5055721;28;20032;-40
2022/09/10 07:57:39;;;;;;;22.65;14.35;;;;;;;-143.48;86.00;77796.03;5073949;28;20085;-41
2022/09/10 08:00:10;;;;;;;23.15;14.80;;;;;;;-143.48;86.04;77786.13;5039469;28;20390;-41
2022/09/10 08:02:36;;;;;;;22.33;13.27;;;;;;;-143.48;85.23;77801.97;5073508;28;20017;-41
2022/09/10 08:05:03;;;;;;;20.60;13.75;;;;;;;-143.48;85.13;77811.88;5056127;28;20031;-41
2022/09/10 08:07:29;;;;;;;22.13;13.52;;;;;;;-143.48;85.05;77798.00;5055617;28;20021;-41
2022/09/10 08:09:55;;;;;;;19.10;12.88;;;;;;;-143.48;83.79;77780.16;5073930;28;20020;-42
2022/09/10 08:12:20;;;;;;;18.48;12.90;;;;;;;-143.48;82.23;77718.69;5055222;28;20031;-46
2022/09/10 08:14:46;;;;;;;23.55;12.10;;;;;;;-143.48;76.01;77601.72;5074252;28;20053;-40
2022/09/10 08:17:11;;;;;;;21.70;12.73;;;;;;;-143.48;77.31;77651.28;5073678;28;20024;-41
2022/09/10 08:19:37;;;;;;;17.17;11.80;;;;;;;-143.48;77.82;77677.06;5073139;28;20047;-41
2022/09/10 08:22:02;;;;;;;17.02;12.02;;;;;;;-143.48;79.12;77688.94;5073473;28;20048;-41
2022/09/10 08:24:27;;;;;;;17.88;12.00;;;;;;;-143.48;78.83;77684.97;5073577;28;20052;-40
2022/09/10 08:26:53;;;;;;;17.00;11.82;;;;;;;-143.48;79.18;77683.00;5073861;28;20032;-43
2022/09/10 08:29:18;;;;;;;16.40;11.77;;;;;;;-143.48;79.48;77679.03;5073178;28;20028;-42
2022/09/10 08:31:44;;;;;;;15.10;11.38;;;;;;;-143.48;79.69;77681.03;5073081;28;20025;-41
2022/09/10 08:34:10;;;;;;;17.08;10.80;;;;;;;-143.48;79.25;77686.97;5055054;28;20108;-41
2022/09/10 08:36:35;;;;;;;18.90;10.93;;;;;;;-143.48;78.83;77692.91;5073075;28;20126;-41
2022/09/10 08:39:01;;;;;;;12.93;9.85;;;;;;;-143.48;77.98;77696.88;5072948;28;20032;-41
2022/09/10 08:41:34;;;;;;;14.75;10.27;;;;;;;-143.48;77.67;77732.56;5073642;28;20044;-41
2022/09/10 08:44:08;;;;;;;20.48;11.02;;;;;;;-143.48;79.07;77708.78;5073437;28;20111;-41
2022/09/10 08:46:42;;;;;;;12.93;9.60;;;;;;;-143.48;79.11;77716.72;5073321;28;20475;-42
2022/09/10 08:49:11;;;;;;;16.58;10.48;;;;;;;-143.48;78.99;77712.75;5073544;28;20028;-41
2022/09/10 08:51:45;;;;;;;15.32;9.52;;;;;;;-143.48;78.85;77720.69;5072922;28;20029;-42
2022/09/10 08:54:18;;;;;;;15.32;8.30;;;;;;;-143.48;79.18;77712.75;5072959;28;20104;-43
2022/09/10 08:56:46;;;;;;;14.45;8.75;;;;;;;-143.48;79.27;77694.91;5073195;28;20392;-42
2022/09/10 08:59:22;;;;;;;13.48;8.35;;;;;;;-143.48;78.59;77714.72;5073577;28;20024;-40
2022/09/10 09:01:50;;;;;;;13.82;9.18;;;;;;;-143.48;78.40;77710.75;5072849;28;20100;-39
2022/09/10 09:04:28;;;;;;;12.07;9.20;;;;;;;-143.48;77.87;77655.25;5055576;28;20062;-41
2022/09/10 09:06:59;;;;;;;12.57;8.77;;;;;;;-143.48;77.02;77621.53;5073054;28;20035;-40
2022/09/10 09:09:24;;;;;;;11.43;7.43;;;;;;;-143.48;74.60;77611.63;5072705;28;20058;-41
2022/09/10 09:12:06;;;;;;;10.63;7.47;;;;;;;-143.48;74.27;77601.72;5072376;28;20040;-41
2022/09/10 09:14:44;;;;;;;15.23;8.02;;;;;;;-143.48;72.13;77560.06;5072984;28;20352;-42
2022/09/10 09:17:37;;;;;;;11.25;7.10;;;;;;;-143.48;67.92;77389.53;5072814;28;20532;-42
2022/09/10 09:20:05;;;;;;;;;;;;;;;-143.48;66.92;77464.88;5073324;28;20046;-40
2022/09/10 09:22:43;;;;;;;11.52;7.22;;;;;;;-143.48;69.62;77480.75;5054459;28;19908;-41
2022/09/10 09:25:21;;;;;;;10.55;6.50;;;;;;;-143.48;69.51;77512.47;5072727;28;20048;-41
2022/09/10 09:27:52;;;;;;;8.93;6.97;;;;;;;-143.48;72.93;77603.69;5072402;28;20068;-41
2022/09/10 09:30:19;;;;;;;10.27;7.10;;;;;;;-143.48;75.15;77623.50;5072891;28;20107;-41
2022/09/10 09:32:46;;;;;;;9.93;7.47;;;;;;;-143.48;75.57;77635.41;5076147;28;20037;-41
2022/09/10 09:35:27;;;;;;;14.20;7.80;;;;;;;-143.48;75.50;77665.16;5076453;28;20024;-41
2022/09/10 09:38:15;;;;;;;10.55;8.50;;;;;;;-143.48;76.22;77673.09;5075862;28;20028;-41
2022/09/10 09:40:55;;;;;;;13.38;9.48;;;;;;;-143.48;77.64;77686.97;5060326;28;20059;-40
2022/09/10 09:43:31;;;;;;;12.48;9.95;;;;;;;-143.48;77.03;77706.78;5075470;28;20020;-41
2022/09/10 09:45:57;;;;;;;14.70;10.55;;;;;;;-143.48;77.20;77714.72;5075002;28;20021;-39
2022/09/10 09:48:23;;;;;;;16.45;9.88;;;;;;;-143.48;77.15;77720.69;5058612;28;20112;-40
2022/09/10 09:50:54;;;;;;;16.80;10.05;;;;;;;-143.48;76.70;77728.59;5075591;28;20481;-41
2022/09/10 09:53:28;;;;;;;13.30;10.40;;;;;;;-143.48;76.41;77714.72;5075904;28;20028;-41
2022/09/10 09:55:56;;;;;;;14.90;11.00;;;;;;;-143.48;76.12;77696.88;5075739;28;20024;-41
2022/09/10 09:58:22;;;;;;;17.13;10.65;;;;;;;-143.48;75.91;77710.75;5075925;28;20039;-40
2022/09/10 10:00:52;;;;;;;14.30;11.40;;;;;;;-143.48;76.06;77679.03;5075791;28;20490;-40
2022/09/10 10:03:26;;;;;;;13.45;10.52;;;;;;;-143.48;73.69;77683.00;5075925;28;20028;-41
2022/09/10 10:06:05;;;;;;;13.95;10.25;;;;;;;-143.48;72.68;77605.66;5075528;28;20029;-41
2022/09/10 10:08:45;;;;;;;16.20;10.77;;;;;;;-143.48;69.97;77522.38;5057376;28;20052;-40
2022/09/10 10:11:18;;;;;;;12.50;10.18;;;;;;;-143.48;67.64;77494.63;5075296;28;20048;-40
2022/09/10 10:13:45;;;;;;;13.88;9.25;;;;;;;-143.48;68.40;77510.50;5075670;28;20029;-40
2022/09/10 10:16:21;;;;;;;12.75;9.45;;;;;;;-143.48;68.29;77556.09;5075448;28;20047;-40
2022/09/10 10:18:48;;;;;;;10.20;8.30;;;;;;;-143.48;68.67;77552.13;5075296;28;20382;-40
2022/09/10 10:21:30;;;;;;;11.45;8.70;;;;;;;-143.48;69.25;77510.50;5075322;28;20118;-40
2022/09/10 10:23:55;;;;;;;9.43;7.78;;;;;;;-143.48;69.05;77577.91;5075509;28;20028;-40
2022/09/10 10:26:29;;;;;;;9.63;7.32;;;;;;;-143.48;67.34;77595.75;5057454;28;20429;-39
2022/09/10 10:29:15;;;;;;;12.43;7.30;;;;;;;-143.48;71.18;77623.50;5075541;28;20459;-40
2022/09/10 10:31:43;;;;;;;9.48;7.00;;;;;;;-143.48;67.75;77562.06;5075128;28;20348;-40
2022/09/10 10:34:08;;;;;;;11.10;7.10;;;;;;;-143.48;67.65;77508.50;5074856;28;20515;-40
2022/09/10 10:36:51;;;;;;;7.83;5.73;;;;;;;-143.48;64.97;77478.78;5074428;28;20070;-41
2022/09/10 10:39:43;;;;;;;7.95;5.30;;;;;;;-143.48;62.31;77397.47;5075183;28;20036;-39
2022/09/10 10:42:18;;;;;;;7.80;4.43;;;;;;;-143.48;60.53;77320.16;5036652;28;20029;-40
2022/09/10 10:45:16;;;;;;;5.25;3.58;;;;;;;-143.48;61.15;77453.00;5074985;28;20036;-40
2022/09/10 10:48:01;;;;;;;4.43;3.83;;;;;;;-143.48;61.23;77393.50;5074800;28;20032;-41
2022/09/10 10:50:38;;;;;;;5.47;3.60;;;;;;;-143.48;58.45;77258.69;5075129;28;20433;-41
2022/09/10 10:53:24;;;;;;;4.55;3.30;;;;;;;-143.48;54.39;77121.88;5073756;28;20028;-40
2022/09/10 10:56:05;;;;;;;5.35;3.75;;;;;;;-143.48;53.63;77096.13;5074671;28;20043;-41
2022/09/10 10:58:47;;;;;;;4.40;3.28;;;;;;;-143.48;52.20;77106.03;5073417;28;20036;-40
2022/09/10 11:01:22;;;;;;;7.35;3.20;;;;;;;-143.48;54.74;77121.88;5055400;28;20341;-41
2022/09/10 11:03:59;;;;;;;4.97;2.70;;;;;;;-143.48;53.98;77084.22;5073337;28;20044;-42
2022/09/10 11:06:33;;;;;;;5.45;3.28;;;;;;;-143.48;57.39;77284.47;5073160;28;20532;-41
2022/09/10 11:09:24;;;;;;;5.00;3.47;;;;;;;-143.48;58.90;77407.38;5073088;28;20023;-41
2022/09/10 11:11:59;;;;;;;5.70;3.30;;;;;;;-143.48;61.21;77474.81;5073406;28;20547;-42
2022/09/10 11:14:28;;;;;;;4.53;3.00;;;;;;;-143.48;61.10;77536.28;5074870;28;20054;-41